Time;durP1;ratioP1;P1;durP2;ratioP2;P2;SDS_P1;SDS_P2;PMS_P1;PMS_P2;Temp;Humidity;BMP_temperature;BMP_pressure;BME280_temperature;BME280_humidity;BME280_pressure;Samples;Min_cycle;Max_cycle;Signal;HPM_P1;HPM_P2
2023/12/24 00:02:01;;;;;;;0.55;0.52;;;;;;;;;;4694169;30;20541;-80
2023/12/24 00:04:41;;;;;;;0.55;0.55;;;;;;;;;;4764255;29;20585;-81
2023/12/24 00:07:10;;;;;;;0.95;0.93;;;;;;;;;;4882169;29;20028;-80
2023/12/24 00:09:46;;;;;;;0.77;0.77;;;;;;;;;;4920493;28;20042;-81
2023/12/24 00:12:13;;;;;;;0.30;0.30;;;;;;;;;;5072232;28;20032;-82
2023/12/24 00:14:39;;;;;;;0.30;0.30;;;;;;;;;;5073282;28;20130;-80
2023/12/24 00:17:18;;;;;;;2.05;1.08;;;;;;;;;;5095968;28;20024;-80
2023/12/24 00:19:47;;;;;;;0.60;0.60;;;;;;;;;;5070225;28;20028;-82
2023/12/24 00:22:18;;;;;;;0.15;0.15;;;;;;;;;;5074846;28;20078;-81
2023/12/24 00:25:01;;;;;;;0.70;0.45;;;;;;;;;;5077610;28;20089;-82
2023/12/24 00:27:27;;;;;;;0.52;0.52;;;;;;;;;;5080076;28;20032;-80
2023/12/24 00:30:03;;;;;;;1.38;1.27;;;;;;;;;;5082931;28;20444;-83
2023/12/24 00:32:34;;;;;;;1.13;0.70;;;;;;;;;;5065663;28;20063;-81
2023/12/24 00:35:05;;;;;;;0.10;0.10;;;;;;;;;;5082468;28;20028;-81
2023/12/24 00:37:31;;;;;;;0.28;0.25;;;;;;;;;;5067768;28;20046;-79
2023/12/24 00:40:06;;;;;;;0.15;0.15;;;;;;;;;;5083026;28;20028;-80
2023/12/24 00:42:57;;;;;;;0.75;0.75;;;;;;;;;;5081469;28;20460;-81
2023/12/24 00:45:29;;;;;;;0.10;0.10;;;;;;;;;;5076921;28;20789;-82
2023/12/24 00:47:56;;;;;;;0.70;0.43;;;;;;;;;;5078455;28;20073;-79
2023/12/24 00:50:33;;;;;;;0.03;0.03;;;;;;;;;;5063688;28;20067;-82
2023/12/24 00:52:59;;;;;;;0.17;0.17;;;;;;;;;;5074974;28;20417;-81
2023/12/24 00:55:41;;;;;;;;;;;;;;;;;;;;;
2023/12/24 00:58:36;;;;;;;0.22;0.22;;;;;;;;;;5078797;28;20468;-80
2023/12/24 01:01:02;;;;;;;0.60;0.50;;;;;;;;;;5082276;28;20059;-80
2023/12/24 01:03:28;;;;;;;0.28;0.28;;;;;;;;;;5061659;28;20029;-79
2023/12/24 01:05:57;;;;;;;0.43;0.38;;;;;;;;;;5078405;28;20064;-80
2023/12/24 01:08:23;;;;;;;0.10;0.10;;;;;;;;;;5076676;28;20063;-81
2023/12/24 01:10:49;;;;;;;0.17;0.17;;;;;;;;;;5068704;28;20032;-79
2023/12/24 01:13:19;;;;;;;0.43;0.43;;;;;;;;;;5059131;28;20523;-81
2023/12/24 01:15:49;;;;;;;0.30;0.30;;;;;;;;;;5093424;28;20106;-81
2023/12/24 01:18:19;;;;;;;0.22;0.22;;;;;;;;;;5073134;28;20521;-80
2023/12/24 01:21:06;;;;;;;0.10;0.10;;;;;;;;;;5096425;28;20031;-80
2023/12/24 01:23:38;;;;;;;0.10;0.10;;;;;;;;;;5094982;28;20020;-82
2023/12/24 01:26:07;;;;;;;0.30;0.30;;;;;;;;;;5074262;28;20092;-80
2023/12/24 01:28:38;;;;;;;0.20;0.20;;;;;;;;;;5090176;28;20027;-80
2023/12/24 01:31:21;;;;;;;0.28;0.28;;;;;;;;;;5076305;28;20107;-82
2023/12/24 01:33:50;;;;;;;1.35;0.60;;;;;;;;;;5091137;28;20032;-80
2023/12/24 01:36:20;;;;;;;0.30;0.27;;;;;;;;;;5093335;28;20024;-80
2023/12/24 01:38:48;;;;;;;0.28;0.28;;;;;;;;;;5096299;28;20410;-80
2023/12/24 01:41:15;;;;;;;0.57;0.43;;;;;;;;;;5074553;28;20114;-83
2023/12/24 01:43:41;;;;;;;0.10;0.10;;;;;;;;;;5098756;28;20019;-82
2023/12/24 01:46:12;;;;;;;0.80;0.40;;;;;;;;;;5096434;28;20043;-82
2023/12/24 01:48:39;;;;;;;0.63;0.45;;;;;;;;;;5092231;28;20038;-82
2023/12/24 01:51:04;;;;;;;0.40;0.40;;;;;;;;;;5076413;28;20497;-81
2023/12/24 01:53:31;;;;;;;0.13;0.13;;;;;;;;;;5095546;28;20032;-84
2023/12/24 01:55:57;;;;;;;0.38;0.38;;;;;;;;;;5094580;28;20496;-82
2023/12/24 01:58:24;;;;;;;0.85;0.52;;;;;;;;;;5093354;28;20065;-81
2023/12/24 02:00:56;;;;;;;0.20;0.20;;;;;;;;;;5092827;28;20036;-83
2023/12/24 02:03:23;;;;;;;1.08;0.40;;;;;;;;;;5091335;28;20043;-82
2023/12/24 02:05:52;;;;;;;0.20;0.20;;;;;;;;;;5075373;28;20032;-81
2023/12/24 02:08:18;;;;;;;0.40;0.40;;;;;;;;;;5074862;28;20047;-81
2023/12/24 02:10:45;;;;;;;0.32;0.32;;;;;;;;;;5095476;28;20037;-82
2023/12/24 02:13:12;;;;;;;0.30;0.30;;;;;;;;;;5094488;28;20028;-81
2023/12/24 02:15:38;;;;;;;0.40;0.40;;;;;;;;;;5079021;28;20039;-82
2023/12/24 02:18:06;;;;;;;0.28;0.20;;;;;;;;;;5097580;28;20035;-79
2023/12/24 02:20:34;;;;;;;1.48;0.63;;;;;;;;;;5097151;28;20024;-84
2023/12/24 02:22:59;;;;;;;0.20;0.20;;;;;;;;;;5094741;28;20024;-81
2023/12/24 02:25:29;;;;;;;0.50;0.45;;;;;;;;;;5095984;28;20024;-81
2023/12/24 02:28:13;;;;;;;0.52;0.52;;;;;;;;;;5091961;28;20027;-80
2023/12/24 02:30:42;;;;;;;0.30;0.30;;;;;;;;;;5079469;28;20054;-84
2023/12/24 02:33:10;;;;;;;0.30;0.30;;;;;;;;;;5093903;28;20024;-81
2023/12/24 02:35:40;;;;;;;0.20;0.20;;;;;;;;;;5094681;28;20028;-81
2023/12/24 02:38:06;;;;;;;0.30;0.30;;;;;;;;;;5094294;28;20027;-80
2023/12/24 02:40:32;;;;;;;0.25;0.25;;;;;;;;;;5078581;28;20028;-82
2023/12/24 02:42:57;;;;;;;0.30;0.30;;;;;;;;;;5092954;28;20028;-81
2023/12/24 02:45:25;;;;;;;3.10;0.40;;;;;;;;;;5099165;28;20040;-80
2023/12/24 02:47:51;;;;;;;0.40;0.40;;;;;;;;;;5076818;28;20027;-82
2023/12/24 02:50:18;;;;;;;0.10;0.10;;;;;;;;;;5096194;28;20019;-82
2023/12/24 02:52:46;;;;;;;0.20;0.20;;;;;;;;;;5096097;28;20024;-82
2023/12/24 02:55:12;;;;;;;0.22;0.22;;;;;;;;;;5078413;28;20031;-80
2023/12/24 02:57:38;;;;;;;0.28;0.28;;;;;;;;;;5095768;28;20478;-82
2023/12/24 03:00:05;;;;;;;0.43;0.40;;;;;;;;;;5091725;28;20054;-81
2023/12/24 03:02:32;;;;;;;1.35;0.32;;;;;;;;;;5097710;28;20509;-80
2023/12/24 03:04:57;;;;;;;0.20;0.20;;;;;;;;;;5076184;28;20738;-83
2023/12/24 03:07:23;;;;;;;0.20;0.20;;;;;;;;;;5075101;28;20035;-81
2023/12/24 03:09:48;;;;;;;2.65;0.35;;;;;;;;;;5095293;28;20020;-82
2023/12/24 03:12:14;;;;;;;0.30;0.30;;;;;;;;;;5097869;28;20051;-81
2023/12/24 03:14:39;;;;;;;0.55;0.55;;;;;;;;;;5096644;28;20054;-80
2023/12/24 03:17:05;;;;;;;0.20;0.20;;;;;;;;;;5094985;28;20020;-81
2023/12/24 03:19:32;;;;;;;0.30;0.30;;;;;;;;;;5092232;28;20028;-81
2023/12/24 03:22:00;;;;;;;0.28;0.28;;;;;;;;;;5093530;28;20031;-81
2023/12/24 03:24:26;;;;;;;0.22;0.22;;;;;;;;;;5072621;28;20034;-84
2023/12/24 03:26:51;;;;;;;0.30;0.30;;;;;;;;;;5079053;28;20047;-81
2023/12/24 03:29:17;;;;;;;1.08;0.73;;;;;;;;;;5076825;28;20077;-80
2023/12/24 03:31:42;;;;;;;0.68;0.55;;;;;;;;;;5098328;28;20482;-80
2023/12/24 03:34:08;;;;;;;0.30;0.30;;;;;;;;;;5095474;28;20128;-81
2023/12/24 03:36:33;;;;;;;0.68;0.25;;;;;;;;;;5094991;28;20034;-81
2023/12/24 03:39:00;;;;;;;0.65;0.65;;;;;;;;;;5072948;28;20050;-80
2023/12/24 03:41:25;;;;;;;0.32;0.17;;;;;;;;;;5092263;28;21598;-78
2023/12/24 03:43:51;;;;;;;0.45;0.45;;;;;;;;;;5090397;28;20104;-81
2023/12/24 03:46:20;;;;;;;0.55;0.22;;;;;;;;;;5074343;28;20035;-81
2023/12/24 03:48:46;;;;;;;0.30;0.30;;;;;;;;;;5090932;28;20107;-81
2023/12/24 03:51:11;;;;;;;0.22;0.22;;;;;;;;;;5074188;28;21113;-79
2023/12/24 03:53:40;;;;;;;0.20;0.20;;;;;;;;;;5073548;28;20122;-79
2023/12/24 03:56:06;;;;;;;0.20;0.20;;;;;;;;;;5091946;28;20111;-81
2023/12/24 03:58:31;;;;;;;0.20;0.20;;;;;;;;;;5072005;28;20070;-82
2023/12/24 04:00:57;;;;;;;0.25;0.25;;;;;;;;;;5075815;28;20452;-81
2023/12/24 04:03:23;;;;;;;0.20;0.20;;;;;;;;;;5096146;28;20035;-81
2023/12/24 04:05:49;;;;;;;0.17;0.17;;;;;;;;;;5094431;28;20024;-82
2023/12/24 04:08:15;;;;;;;0.20;0.20;;;;;;;;;;5094040;28;20040;-81
2023/12/24 04:10:41;;;;;;;2.83;0.47;;;;;;;;;;5094727;28;20528;-84
2023/12/24 04:13:10;;;;;;;0.20;0.20;;;;;;;;;;5097030;28;20031;-80
2023/12/24 04:15:35;;;;;;;0.82;0.38;;;;;;;;;;5095107;28;20100;-82
2023/12/24 04:18:07;;;;;;;0.40;0.30;;;;;;;;;;5094657;28;20115;-82
2023/12/24 04:20:33;;;;;;;0.30;0.30;;;;;;;;;;5097374;28;20030;-81
2023/12/24 04:22:58;;;;;;;0.65;0.63;;;;;;;;;;5078118;28;20110;-81
2023/12/24 04:25:24;;;;;;;0.40;0.40;;;;;;;;;;5077645;28;20114;-81
2023/12/24 04:27:49;;;;;;;0.65;0.65;;;;;;;;;;5095600;28;20081;-81
2023/12/24 04:30:15;;;;;;;4.28;1.00;;;;;;;;;;5096130;28;20024;-80
2023/12/24 04:32:40;;;;;;;0.30;0.30;;;;;;;;;;5075915;28;20066;-80
2023/12/24 04:35:06;;;;;;;0.35;0.35;;;;;;;;;;5095092;28;20053;-80
2023/12/24 04:37:32;;;;;;;0.47;0.38;;;;;;;;;;5094610;28;20078;-81
2023/12/24 04:39:57;;;;;;;0.50;0.50;;;;;;;;;;5095214;28;20024;-83
2023/12/24 04:42:24;;;;;;;0.40;0.40;;;;;;;;;;5097167;28;20042;-81
2023/12/24 04:44:49;;;;;;;0.20;0.20;;;;;;;;;;5096285;28;20028;-80
2023/12/24 04:47:15;;;;;;;0.75;0.75;;;;;;;;;;5100055;28;20564;-81
2023/12/24 04:49:40;;;;;;;0.22;0.22;;;;;;;;;;5075668;28;20028;-82
2023/12/24 04:52:06;;;;;;;0.32;0.32;;;;;;;;;;5077269;28;20031;-80
2023/12/24 04:54:31;;;;;;;0.73;0.50;;;;;;;;;;5093084;28;20031;-80
2023/12/24 04:57:00;;;;;;;0.70;0.28;;;;;;;;;;5076228;28;20107;-83
2023/12/24 04:59:25;;;;;;;0.30;0.30;;;;;;;;;;5093729;28;20036;-82
2023/12/24 05:01:51;;;;;;;0.25;0.25;;;;;;;;;;5092252;28;20055;-81
2023/12/24 05:04:22;;;;;;;0.10;0.10;;;;;;;;;;5093686;28;20047;-83
2023/12/24 05:06:48;;;;;;;0.20;0.20;;;;;;;;;;5072595;28;20474;-82
2023/12/24 05:11:58;;;;;;;0.20;0.20;;;;;;;;;;5091596;28;20047;-81
2023/12/24 05:14:23;;;;;;;0.15;0.15;;;;;;;;;;5075975;28;20047;-82
2023/12/24 05:16:48;;;;;;;0.20;0.20;;;;;;;;;;5073953;28;20027;-82
2023/12/24 05:19:14;;;;;;;0.10;0.10;;;;;;;;;;5091862;28;20028;-83
2023/12/24 05:21:39;;;;;;;0.20;0.20;;;;;;;;;;5091983;28;20019;-82
2023/12/24 05:24:07;;;;;;;0.10;0.10;;;;;;;;;;5090935;28;20024;-80
2023/12/24 05:26:33;;;;;;;0.30;0.30;;;;;;;;;;5092024;28;20069;-83
2023/12/24 05:28:58;;;;;;;0.28;0.28;;;;;;;;;;5091993;28;20027;-81
2023/12/24 05:31:23;;;;;;;0.43;0.20;;;;;;;;;;5092546;28;20085;-80
2023/12/24 05:33:49;;;;;;;0.80;0.57;;;;;;;;;;5091698;28;20078;-78
2023/12/24 05:36:15;;;;;;;0.40;0.40;;;;;;;;;;5092649;28;20024;-80
2023/12/24 05:38:40;;;;;;;0.40;0.40;;;;;;;;;;5073190;28;20031;-80
2023/12/24 05:41:15;;;;;;;0.30;0.30;;;;;;;;;;5073794;28;20495;-80
2023/12/24 05:43:41;;;;;;;0.38;0.38;;;;;;;;;;5090955;28;20103;-80
2023/12/24 05:46:13;;;;;;;0.77;0.77;;;;;;;;;;5090128;28;20107;-79
2023/12/24 05:48:39;;;;;;;0.32;0.32;;;;;;;;;;5090531;28;20031;-81
2023/12/24 05:51:05;;;;;;;0.20;0.20;;;;;;;;;;5091212;28;20028;-79
2023/12/24 05:53:30;;;;;;;0.20;0.20;;;;;;;;;;5089149;28;20119;-79
2023/12/24 05:55:55;;;;;;;4.18;0.63;;;;;;;;;;5090065;28;20031;-80
2023/12/24 05:58:21;;;;;;;0.40;0.40;;;;;;;;;;5089353;28;20028;-79
2023/12/24 06:00:47;;;;;;;0.10;0.10;;;;;;;;;;5090700;28;20055;-81
2023/12/24 06:03:13;;;;;;;0.30;0.30;;;;;;;;;;5070504;28;20028;-82
2023/12/24 06:05:38;;;;;;;0.13;0.13;;;;;;;;;;5072480;28;20379;-84
2023/12/24 06:08:04;;;;;;;0.30;0.30;;;;;;;;;;5072768;28;20116;-79
2023/12/24 06:10:29;;;;;;;0.57;0.47;;;;;;;;;;5090328;28;20027;-80
2023/12/24 06:12:55;;;;;;;0.20;0.20;;;;;;;;;;5090237;28;20062;-79
2023/12/24 06:15:20;;;;;;;0.55;0.47;;;;;;;;;;5071531;28;20500;-83
2023/12/24 06:17:46;;;;;;;0.30;0.22;;;;;;;;;;5071099;28;20048;-81
2023/12/24 06:20:11;;;;;;;0.55;0.40;;;;;;;;;;5086003;28;20035;-84
2023/12/24 06:22:37;;;;;;;0.30;0.30;;;;;;;;;;5089797;28;20032;-81
2023/12/24 06:25:02;;;;;;;0.10;0.10;;;;;;;;;;5070987;28;20460;-80
2023/12/24 06:27:28;;;;;;;0.30;0.30;;;;;;;;;;5072127;28;20643;-80
2023/12/24 06:29:54;;;;;;;0.35;0.30;;;;;;;;;;5089468;28;20073;-79
2023/12/24 06:32:19;;;;;;;0.30;0.30;;;;;;;;;;5090093;28;20036;-78
2023/12/24 06:34:45;;;;;;;0.15;0.10;;;;;;;;;;5090680;28;20490;-80
2023/12/24 06:37:11;;;;;;;0.20;0.20;;;;;;;;;;5088995;28;20024;-79
2023/12/24 06:39:37;;;;;;;0.13;0.13;;;;;;;;;;5071589;28;20034;-79
2023/12/24 06:42:03;;;;;;;4.47;0.40;;;;;;;;;;5088456;28;20038;-81
2023/12/24 06:44:28;;;;;;;0.20;0.20;;;;;;;;;;5088825;28;20047;-80
2023/12/24 06:46:53;;;;;;;0.40;0.40;;;;;;;;;;5088919;28;20543;-81
2023/12/24 06:49:19;;;;;;;0.38;0.30;;;;;;;;;;5070687;28;20069;-80
2023/12/24 06:51:44;;;;;;;0.43;0.40;;;;;;;;;;5071198;28;20027;-79
2023/12/24 06:54:10;;;;;;;0.38;0.38;;;;;;;;;;5071252;28;20035;-80
2023/12/24 06:56:35;;;;;;;0.20;0.20;;;;;;;;;;5090009;28;20035;-80
2023/12/24 06:59:01;;;;;;;0.30;0.20;;;;;;;;;;5088672;28;20028;-80
2023/12/24 07:01:26;;;;;;;0.17;0.17;;;;;;;;;;5083389;28;20138;-80
2023/12/24 07:03:52;;;;;;;0.10;0.10;;;;;;;;;;5087863;28;20103;-81
2023/12/24 07:06:17;;;;;;;0.20;0.20;;;;;;;;;;5089170;28;20035;-82
2023/12/24 07:08:43;;;;;;;0.10;0.10;;;;;;;;;;5089195;28;20020;-78
2023/12/24 07:11:08;;;;;;;0.20;0.20;;;;;;;;;;5085471;28;20095;-78
2023/12/24 07:13:34;;;;;;;0.22;0.22;;;;;;;;;;5070268;28;20028;-80
2023/12/24 07:15:59;;;;;;;0.35;0.25;;;;;;;;;;5089373;28;20044;-78
2023/12/24 07:18:25;;;;;;;0.57;0.40;;;;;;;;;;5088347;28;20027;-78
2023/12/24 07:20:51;;;;;;;0.15;0.15;;;;;;;;;;5069739;28;20613;-81
2023/12/24 07:23:16;;;;;;;0.28;0.28;;;;;;;;;;5090377;28;20024;-79
2023/12/24 07:25:41;;;;;;;0.13;0.13;;;;;;;;;;5089510;28;20031;-79
2023/12/24 07:28:07;;;;;;;0.43;0.25;;;;;;;;;;5088653;28;20051;-79
2023/12/24 07:30:32;;;;;;;0.90;0.40;;;;;;;;;;5089478;28;20028;-79
2023/12/24 07:32:58;;;;;;;0.20;0.20;;;;;;;;;;5089522;28;20032;-80
2023/12/24 07:35:23;;;;;;;0.20;0.20;;;;;;;;;;5089653;28;20471;-78
2023/12/24 07:37:49;;;;;;;1.00;0.73;;;;;;;;;;5094493;28;20040;-77
2023/12/24 07:40:14;;;;;;;1.77;1.10;;;;;;;;;;5093282;28;20034;-79
2023/12/24 07:42:39;;;;;;;0.85;0.50;;;;;;;;;;5091595;28;20030;-79
2023/12/24 07:45:05;;;;;;;0.40;0.35;;;;;;;;;;5075457;28;20065;-78
2023/12/24 07:47:31;;;;;;;0.28;0.28;;;;;;;;;;5075847;28;20028;-78
2023/12/24 07:49:56;;;;;;;0.30;0.30;;;;;;;;;;5073808;28;20027;-78
2023/12/24 07:52:22;;;;;;;0.20;0.20;;;;;;;;;;5094022;28;20024;-79
2023/12/24 07:54:47;;;;;;;0.25;0.17;;;;;;;;;;5091653;28;20063;-80
2023/12/24 07:57:12;;;;;;;1.17;0.90;;;;;;;;;;5095438;28;20016;-78
2023/12/24 07:59:38;;;;;;;1.83;0.63;;;;;;;;;;5094133;28;20034;-81
2023/12/24 08:02:03;;;;;;;0.82;0.82;;;;;;;;;;5076997;28;20028;-80
2023/12/24 08:04:30;;;;;;;0.30;0.30;;;;;;;;;;5095307;28;20434;-80
2023/12/24 08:06:56;;;;;;;0.43;0.35;;;;;;;;;;5093949;28;20081;-79
2023/12/24 08:09:21;;;;;;;0.35;0.35;;;;;;;;;;5075259;28;20035;-80
2023/12/24 08:11:46;;;;;;;0.43;0.43;;;;;;;;;;5093899;28;20066;-80
2023/12/24 08:14:12;;;;;;;0.40;0.20;;;;;;;;;;5075260;28;20052;-79
2023/12/24 08:16:37;;;;;;;1.77;0.40;;;;;;;;;;5093468;28;20486;-79
2023/12/24 08:19:03;;;;;;;0.35;0.35;;;;;;;;;;5076341;28;20024;-80
2023/12/24 08:21:30;;;;;;;0.30;0.30;;;;;;;;;;5075469;28;20020;-81
2023/12/24 08:23:56;;;;;;;0.20;0.20;;;;;;;;;;5093197;28;20491;-80
2023/12/24 08:26:21;;;;;;;0.40;0.40;;;;;;;;;;5091915;28;20028;-79
2023/12/24 08:28:46;;;;;;;0.35;0.32;;;;;;;;;;5094005;28;20116;-80
2023/12/24 08:31:13;;;;;;;0.40;0.35;;;;;;;;;;5093563;28;20024;-78
2023/12/24 08:33:38;;;;;;;0.73;0.55;;;;;;;;;;5093016;28;20367;-78
2023/12/24 08:36:04;;;;;;;0.50;0.50;;;;;;;;;;5093321;28;20024;-80
2023/12/24 08:38:30;;;;;;;1.52;0.55;;;;;;;;;;5092316;28;20058;-79
2023/12/24 08:40:56;;;;;;;0.20;0.20;;;;;;;;;;5090954;28;20065;-81
2023/12/24 08:43:21;;;;;;;1.60;1.13;;;;;;;;;;5092783;28;20040;-80
2023/12/24 08:45:47;;;;;;;0.10;0.10;;;;;;;;;;5092470;28;20028;-80
2023/12/24 08:48:12;;;;;;;0.22;0.22;;;;;;;;;;5093128;28;20463;-79
2023/12/24 08:50:37;;;;;;;0.30;0.30;;;;;;;;;;5074549;28;20028;-80
2023/12/24 08:53:03;;;;;;;0.55;0.30;;;;;;;;;;5075807;28;20028;-79
2023/12/24 08:55:29;;;;;;;0.30;0.30;;;;;;;;;;5089856;28;20040;-79
2023/12/24 08:57:54;;;;;;;0.15;0.15;;;;;;;;;;5092210;28;20034;-80
2023/12/24 09:00:20;;;;;;;0.75;0.63;;;;;;;;;;5092723;28;20521;-79
2023/12/24 09:02:47;;;;;;;0.90;0.52;;;;;;;;;;5092716;28;20034;-80
2023/12/24 09:05:13;;;;;;;0.63;0.52;;;;;;;;;;5092484;28;20094;-79
2023/12/24 09:07:38;;;;;;;0.40;0.40;;;;;;;;;;5074032;28;20058;-80
2023/12/24 09:10:04;;;;;;;1.73;0.80;;;;;;;;;;5091924;28;20107;-80
2023/12/24 09:12:30;;;;;;;0.93;0.77;;;;;;;;;;5091085;28;20020;-81
2023/12/24 09:14:55;;;;;;;0.63;0.40;;;;;;;;;;5092354;28;20144;-81
2023/12/24 09:17:21;;;;;;;1.00;0.63;;;;;;;;;;5090426;28;20109;-80
2023/12/24 09:19:46;;;;;;;0.60;0.50;;;;;;;;;;5073221;28;20081;-80
2023/12/24 09:22:12;;;;;;;0.70;0.70;;;;;;;;;;5091612;28;20054;-79
2023/12/24 09:24:37;;;;;;;1.00;0.90;;;;;;;;;;5092156;28;20039;-80
2023/12/24 09:27:03;;;;;;;0.55;0.50;;;;;;;;;;5074279;28;20038;-80
2023/12/24 09:29:28;;;;;;;0.52;0.35;;;;;;;;;;5072684;28;20036;-79
2023/12/24 09:31:54;;;;;;;2.03;0.50;;;;;;;;;;5090805;28;22172;-80
2023/12/24 09:34:20;;;;;;;0.40;0.40;;;;;;;;;;5091700;28;20379;-79
2023/12/24 09:36:45;;;;;;;1.02;0.90;;;;;;;;;;5092704;28;20031;-81
2023/12/24 09:39:11;;;;;;;0.22;0.22;;;;;;;;;;5092669;28;20388;-81
2023/12/24 09:41:37;;;;;;;1.45;1.10;;;;;;;;;;5092146;28;20059;-81
2023/12/24 09:44:03;;;;;;;0.28;0.28;;;;;;;;;;5092153;28;20099;-81
2023/12/24 09:46:31;;;;;;;1.20;0.88;;;;;;;;;;5091281;28;20035;-80
2023/12/24 09:48:56;;;;;;;0.32;0.30;;;;;;;;;;5091770;28;20040;-81
2023/12/24 09:51:23;;;;;;;1.42;0.73;;;;;;;;;;5092003;28;20031;-80
2023/12/24 09:53:49;;;;;;;1.40;0.82;;;;;;;;;;5091897;28;20035;-81
2023/12/24 09:56:15;;;;;;;0.52;0.50;;;;;;;;;;5089879;28;20364;-78
2023/12/24 09:58:41;;;;;;;3.00;0.50;;;;;;;;;;5088508;28;20494;-80
2023/12/24 10:01:07;;;;;;;0.45;0.45;;;;;;;;;;5090365;28;20024;-81
2023/12/24 10:03:32;;;;;;;0.32;0.30;;;;;;;;;;5090951;28;20533;-81
2023/12/24 10:06:03;;;;;;;1.73;0.70;;;;;;;;;;5087927;28;20035;-78
2023/12/24 10:08:33;;;;;;;1.08;0.77;;;;;;;;;;5089802;28;20028;-78
2023/12/24 10:11:12;;;;;;;0.38;0.32;;;;;;;;;;5090225;28;20028;-79
2023/12/24 10:13:38;;;;;;;1.25;0.90;;;;;;;;;;5088048;28;20034;-79
2023/12/24 10:16:05;;;;;;;0.73;0.45;;;;;;;;;;5089642;28;20028;-77
2023/12/24 10:18:30;;;;;;;0.65;0.43;;;;;;;;;;5072395;28;20105;-81
2023/12/24 10:21:06;;;;;;;1.35;0.77;;;;;;;;;;5089951;28;20020;-81
2023/12/24 10:23:32;;;;;;;0.55;0.50;;;;;;;;;;5089341;28;20027;-79
2023/12/24 10:26:09;;;;;;;3.20;0.60;;;;;;;;;;5090705;28;20416;-79
2023/12/24 10:28:46;;;;;;;1.02;0.40;;;;;;;;;;5089972;28;20024;-79
2023/12/24 10:31:12;;;;;;;3.58;0.80;;;;;;;;;;5089144;28;20035;-81
2023/12/24 10:33:38;;;;;;;0.40;0.40;;;;;;;;;;5072063;28;20035;-79
2023/12/24 10:36:05;;;;;;;0.60;0.52;;;;;;;;;;5089984;28;20036;-79
2023/12/24 10:38:37;;;;;;;0.90;0.60;;;;;;;;;;5090704;28;20027;-77
2023/12/24 10:41:09;;;;;;;1.33;0.88;;;;;;;;;;5087650;28;20081;-81
2023/12/24 10:43:35;;;;;;;0.50;0.50;;;;;;;;;;5088571;28;20027;-80
2023/12/24 10:46:02;;;;;;;2.05;0.60;;;;;;;;;;5088646;28;20024;-78
2023/12/24 10:48:27;;;;;;;1.20;1.10;;;;;;;;;;5089292;28;20024;-77
2023/12/24 10:50:52;;;;;;;1.63;0.25;;;;;;;;;;5089659;28;20088;-80
2023/12/24 10:53:18;;;;;;;0.50;0.50;;;;;;;;;;5089939;28;20066;-80
2023/12/24 10:56:06;;;;;;;0.35;0.35;;;;;;;;;;5087668;28;20028;-80
2023/12/24 10:58:50;;;;;;;1.13;0.70;;;;;;;;;;5089628;28;20031;-82
2023/12/24 11:01:17;;;;;;;0.10;0.10;;;;;;;;;;5088641;28;20079;-79
2023/12/24 11:03:49;;;;;;;0.70;0.60;;;;;;;;;;5090231;28;20181;-82
2023/12/24 11:06:38;;;;;;;1.17;0.65;;;;;;;;;;5090341;28;20036;-78
2023/12/24 11:09:30;;;;;;;0.65;0.32;;;;;;;;;;5088288;28;20485;-79
2023/12/24 11:11:58;;;;;;;2.38;0.60;;;;;;;;;;5088114;28;20036;-81
2023/12/24 11:14:45;;;;;;;0.63;0.30;;;;;;;;;;5086632;28;20502;-80
2023/12/24 11:17:39;;;;;;;1.80;0.88;;;;;;;;;;5088055;28;20036;-79
2023/12/24 11:20:26;;;;;;;8.85;1.95;;;;;;;;;;5087367;28;20031;-79
2023/12/24 11:23:04;;;;;;;1.02;0.90;;;;;;;;;;5087620;28;20035;-79
2023/12/24 11:25:47;;;;;;;1.77;1.10;;;;;;;;;;5087785;28;20020;-81
2023/12/24 11:28:36;;;;;;;0.95;0.70;;;;;;;;;;5068031;28;20043;-78
2023/12/24 11:31:03;;;;;;;4.53;0.80;;;;;;;;;;5073653;28;20403;-79
2023/12/24 11:33:28;;;;;;;10.23;1.02;;;;;;;;;;5088959;28;20027;-80
2023/12/24 11:36:01;;;;;;;0.77;0.60;;;;;;;;;;5089328;28;20024;-82
2023/12/24 11:38:33;;;;;;;1.17;0.73;;;;;;;;;;5087578;28;20016;-80
2023/12/24 11:41:10;;;;;;;2.83;1.10;;;;;;;;;;5070371;28;20122;-79
2023/12/24 11:43:37;;;;;;;2.22;0.88;;;;;;;;;;5088697;28;20031;-79
2023/12/24 11:46:03;;;;;;;1.70;0.80;;;;;;;;;;5088069;28;20077;-83
2023/12/24 11:48:32;;;;;;;1.00;0.60;;;;;;;;;;5086963;28;20024;-80
2023/12/24 11:51:06;;;;;;;0.52;0.30;;;;;;;;;;5088423;28;20038;-81
2023/12/24 11:53:34;;;;;;;3.67;0.60;;;;;;;;;;5087298;28;20107;-83
2023/12/24 11:56:26;;;;;;;4.30;1.73;;;;;;;;;;5086742;28;20028;-79
2023/12/24 11:58:55;;;;;;;2.92;0.63;;;;;;;;;;5084121;28;20040;-81
2023/12/24 12:01:25;;;;;;;0.40;0.40;;;;;;;;;;5071058;28;20372;-80
2023/12/24 12:03:59;;;;;;;6.15;1.10;;;;;;;;;;5072122;28;20058;-80
2023/12/24 12:06:28;;;;;;;3.65;1.65;;;;;;;;;;5069411;28;20032;-79
2023/12/24 12:08:54;;;;;;;1.13;0.52;;;;;;;;;;5087180;28;20071;-78
2023/12/24 12:11:20;;;;;;;0.47;0.40;;;;;;;;;;5089088;28;20059;-80
2023/12/24 12:13:46;;;;;;;1.08;0.77;;;;;;;;;;5068754;28;20050;-80
2023/12/24 12:16:12;;;;;;;0.40;0.40;;;;;;;;;;5084076;28;20028;-80
2023/12/24 12:18:37;;;;;;;0.90;0.88;;;;;;;;;;5088364;28;20023;-80
2023/12/24 12:21:03;;;;;;;6.32;0.80;;;;;;;;;;5088920;28;20032;-78
2023/12/24 12:23:29;;;;;;;0.68;0.65;;;;;;;;;;5093833;28;20035;-81
2023/12/24 12:25:54;;;;;;;1.38;1.27;;;;;;;;;;5074881;28;20077;-82
2023/12/24 12:28:20;;;;;;;3.83;0.90;;;;;;;;;;5073411;28;20059;-80
2023/12/24 12:30:45;;;;;;;1.85;0.75;;;;;;;;;;5092826;28;20036;-80
2023/12/24 12:33:11;;;;;;;0.90;0.63;;;;;;;;;;5073533;28;20032;-81
2023/12/24 12:35:37;;;;;;;0.65;0.57;;;;;;;;;;5092471;28;20024;-80
2023/12/24 12:38:03;;;;;;;1.63;0.98;;;;;;;;;;5090861;28;20039;-82
2023/12/24 12:40:29;;;;;;;0.60;0.60;;;;;;;;;;5073901;28;20032;-82
2023/12/24 12:42:55;;;;;;;4.38;1.25;;;;;;;;;;5073791;28;20031;-79
2023/12/24 12:45:21;;;;;;;1.63;0.93;;;;;;;;;;5073149;28;20020;-81
2023/12/24 12:47:46;;;;;;;6.05;1.08;;;;;;;;;;5091933;28;20027;-80
2023/12/24 12:50:12;;;;;;;3.22;0.90;;;;;;;;;;5073132;28;20511;-79
2023/12/24 12:52:37;;;;;;;1.15;1.02;;;;;;;;;;5090231;28;20036;-79
2023/12/24 12:55:12;;;;;;;3.40;1.35;;;;;;;;;;5072152;28;20012;-80
2023/12/24 12:57:38;;;;;;;2.70;0.60;;;;;;;;;;5089854;28;20082;-77
2023/12/24 13:00:10;;;;;;;2.42;0.80;;;;;;;;;;5089543;28;20024;-80
2023/12/24 13:02:40;;;;;;;1.88;0.70;;;;;;;;;;5072424;28;20035;-80
2023/12/24 13:05:22;;;;;;;1.35;0.73;;;;;;;;;;5072418;28;20133;-80
2023/12/24 13:07:47;;;;;;;3.53;0.95;;;;;;;;;;5091128;28;20024;-81
2023/12/24 13:10:13;;;;;;;0.47;0.30;;;;;;;;;;5089082;28;20364;-77
2023/12/24 13:12:38;;;;;;;0.73;0.73;;;;;;;;;;5089985;28;20085;-79
2023/12/24 13:15:04;;;;;;;2.63;1.08;;;;;;;;;;5090224;28;20044;-80
2023/12/24 13:17:29;;;;;;;4.57;1.25;;;;;;;;;;5071442;28;20020;-80
2023/12/24 13:19:55;;;;;;;5.78;0.68;;;;;;;;;;5071385;28;20039;-79
2023/12/24 13:22:26;;;;;;;1.00;0.95;;;;;;;;;;5090882;28;20353;-80
2023/12/24 13:24:53;;;;;;;0.40;0.40;;;;;;;;;;5090272;28;20020;-81
2023/12/24 13:27:19;;;;;;;0.40;0.40;;;;;;;;;;5090287;28;20051;-79
2023/12/24 13:29:45;;;;;;;0.50;0.50;;;;;;;;;;5089797;28;20438;-82
2023/12/24 13:32:11;;;;;;;9.40;1.15;;;;;;;;;;5089306;28;20020;-78
2023/12/24 13:34:36;;;;;;;0.93;0.77;;;;;;;;;;5072732;28;20024;-77
2023/12/24 13:37:02;;;;;;;5.38;1.02;;;;;;;;;;5089888;28;20028;-80
2023/12/24 13:39:28;;;;;;;0.50;0.50;;;;;;;;;;5088706;28;20028;-78
2023/12/24 13:41:54;;;;;;;3.25;1.02;;;;;;;;;;5088317;28;20028;-79
2023/12/24 13:44:19;;;;;;;0.80;0.50;;;;;;;;;;5090107;28;20028;-80
2023/12/24 13:46:45;;;;;;;0.60;0.60;;;;;;;;;;5070856;28;20440;-78
2023/12/24 13:49:14;;;;;;;0.25;0.22;;;;;;;;;;5088342;28;20058;-77
2023/12/24 13:51:39;;;;;;;0.50;0.50;;;;;;;;;;5071844;28;20365;-78
2023/12/24 13:54:04;;;;;;;0.50;0.50;;;;;;;;;;5088032;28;20115;-80
2023/12/24 13:56:33;;;;;;;0.57;0.57;;;;;;;;;;5069163;28;20085;-79
2023/12/24 13:58:58;;;;;;;1.33;0.60;;;;;;;;;;5070328;28;20467;-80
2023/12/24 14:01:23;;;;;;;5.22;0.85;;;;;;;;;;5088276;28;20115;-79
2023/12/24 14:03:49;;;;;;;0.52;0.50;;;;;;;;;;5089546;28;20024;-79
2023/12/24 14:06:14;;;;;;;3.95;1.10;;;;;;;;;;5070911;28;20032;-78
2023/12/24 14:08:40;;;;;;;0.40;0.40;;;;;;;;;;5089069;28;20494;-79
2023/12/24 14:11:07;;;;;;;0.60;0.57;;;;;;;;;;5088417;28;20020;-80
2023/12/24 14:13:33;;;;;;;0.90;0.65;;;;;;;;;;5088156;28;20084;-77
2023/12/24 14:15:58;;;;;;;4.55;0.95;;;;;;;;;;5085426;28;20036;-79
2023/12/24 14:18:24;;;;;;;0.93;0.63;;;;;;;;;;5070698;28;20065;-79
2023/12/24 14:20:49;;;;;;;1.10;0.98;;;;;;;;;;5089027;28;20114;-80
2023/12/24 14:23:15;;;;;;;1.10;0.88;;;;;;;;;;5088885;28;20460;-81
2023/12/24 14:25:40;;;;;;;3.08;0.88;;;;;;;;;;5087995;28;20034;-79
2023/12/24 14:28:06;;;;;;;1.90;1.33;;;;;;;;;;5090443;28;20047;-81
2023/12/24 14:30:32;;;;;;;5.72;1.20;;;;;;;;;;5087740;28;20115;-81
2023/12/24 14:32:57;;;;;;;2.25;0.65;;;;;;;;;;5084812;28;20477;-80
2023/12/24 14:35:23;;;;;;;0.82;0.40;;;;;;;;;;5069348;28;20035;-80
2023/12/24 14:37:48;;;;;;;1.98;1.20;;;;;;;;;;5088051;28;20474;-80
2023/12/24 14:40:13;;;;;;;2.50;0.95;;;;;;;;;;5088441;28;20515;-84
2023/12/24 14:42:39;;;;;;;2.67;1.27;;;;;;;;;;5088819;28;20027;-79
2023/12/24 14:45:05;;;;;;;2.20;0.63;;;;;;;;;;5087518;28;20333;-78
2023/12/24 14:47:30;;;;;;;3.55;1.63;;;;;;;;;;5088063;28;20110;-77
2023/12/24 14:49:57;;;;;;;1.92;0.82;;;;;;;;;;5088011;28;20032;-78